createdAt,value
2023-03-12T00:01:27.678Z,97402.50
2023-03-12T00:03:59.681Z,97403.63
2023-03-12T00:06:33.143Z,97402.81
2023-03-12T00:09:04.890Z,97406.63
2023-03-12T00:11:35.575Z,97408.28
2023-03-12T00:14:06.409Z,97407.88
2023-03-12T00:16:36.907Z,97410.59
2023-03-12T00:19:07.285Z,97414.16
2023-03-12T00:21:40.259Z,97411.84
2023-03-12T00:24:11.407Z,97422.72
2023-03-12T00:26:41.719Z,97422.31
2023-03-12T00:29:12.105Z,97410.59
2023-03-12T00:31:42.488Z,97413.69
2023-03-12T00:34:13.637Z,97407.44
2023-03-12T00:36:46.660Z,97406.66
2023-03-12T00:39:17.004Z,97421.88
2023-03-12T00:41:47.503Z,97414.16
2023-03-12T00:44:17.990Z,97416.13
2023-03-12T00:46:48.608Z,97404.06
2023-03-12T00:49:19.100Z,97416.50
2023-03-12T00:51:52.217Z,97423.50
2023-03-12T00:54:22.773Z,97422.72
2023-03-12T00:56:53.353Z,97417.72
2023-03-12T00:59:23.732Z,97410.69
2023-03-12T01:01:54.164Z,97409.63
2023-03-12T01:04:24.515Z,97421.59
2023-03-12T01:06:58.748Z,97413.91
2023-03-12T01:09:29.256Z,97418.56
2023-03-12T01:12:00.053Z,97409.75
2023-03-12T01:14:30.523Z,97409.75
2023-03-12T01:17:00.997Z,97416.75
2023-03-12T01:19:31.444Z,97415.53
2023-03-12T01:22:04.563Z,97416.34
2023-03-12T01:24:35.347Z,97416.75
2023-03-12T01:27:05.665Z,97421.47
2023-03-12T01:29:35.940Z,97416.03
2023-03-12T01:32:06.306Z,97420.75
2023-03-12T01:34:36.728Z,97424.97
2023-03-12T01:37:10.380Z,97434.38
2023-03-12T01:39:41.060Z,97428.97
2023-03-12T01:42:11.529Z,97432.44
2023-03-12T01:44:59.550Z,97431.28
2023-03-12T01:47:33.102Z,97431.38
2023-03-12T01:50:08.253Z,97426.34
2023-03-12T01:52:42.737Z,97415.50
2023-03-12T01:55:17.462Z,97427.56
2023-03-12T01:57:55.178Z,97427.59
2023-03-12T02:00:29.790Z,97422.19
2023-03-12T02:03:05.674Z,97426.44
2023-03-12T02:05:44.250Z,97428.72
2023-03-12T02:08:20.165Z,97427.59
2023-03-12T02:10:50.862Z,97423.78
2023-03-12T02:13:22.291Z,97429.97
2023-03-12T02:15:52.443Z,97428.44
2023-03-12T02:18:23.979Z,97425.34
2023-03-12T02:21:07.601Z,97429.66
2023-03-12T02:23:50.045Z,97437.06
2023-03-12T02:26:24.556Z,97422.72
2023-03-12T02:28:56.306Z,97430.88
2023-03-12T02:31:31.967Z,97430.81
2023-03-12T02:34:02.476Z,97421.91
2023-03-12T02:36:33.096Z,97419.19
2023-03-12T02:39:03.846Z,97414.53
2023-03-12T02:41:41.457Z,97419.09
2023-03-12T02:44:17.408Z,97421.06
2023-03-12T02:46:52.165Z,97424.66
2023-03-12T02:49:25.955Z,97429.72
2023-03-12T02:51:56.769Z,97432.03
2023-03-12T02:54:28.389Z,97430.47
2023-03-12T02:57:01.853Z,97431.16
2023-03-12T02:59:34.537Z,97432.66
2023-03-12T03:02:09.696Z,97429.91
2023-03-12T03:04:40.280Z,97436.88
2023-03-12T03:07:11.079Z,97437.69
2023-03-12T03:09:41.697Z,97443.53
2023-03-12T03:12:15.013Z,97445.47
2023-03-12T03:14:45.732Z,97447.34
2023-03-12T03:17:16.188Z,97453.88
2023-03-12T03:19:46.662Z,97455.78
2023-03-12T03:22:17.034Z,97460.03
2023-03-12T03:24:47.441Z,97459.22
2023-03-12T03:27:20.410Z,97460.78
2023-03-12T03:29:51.027Z,97454.22
2023-03-12T03:32:21.515Z,97461.97
2023-03-12T03:34:51.830Z,97470.91
2023-03-12T03:37:22.525Z,97469.75
2023-03-12T03:39:53.266Z,97467.06
2023-03-12T03:42:26.233Z,97469.38
2023-03-12T03:44:56.553Z,97467.78
2023-03-12T03:47:26.945Z,97462.38
2023-03-12T03:49:57.292Z,97470.63
2023-03-12T03:52:27.742Z,97462.13
2023-03-12T03:54:59.506Z,97462.50
2023-03-12T03:57:32.870Z,97470.25
2023-03-12T04:00:09.037Z,97469.44
2023-03-12T04:02:43.986Z,97456.28
2023-03-12T04:05:16.162Z,97465.53
2023-03-12T04:07:46.877Z,97462.47
2023-03-12T04:10:18.362Z,97466.38
2023-03-12T04:12:51.524Z,97465.59
2023-03-12T04:15:22.039Z,97467.13
2023-03-12T04:17:53.023Z,97466.38
2023-03-12T04:20:24.458Z,97462.53
2023-03-12T04:22:54.814Z,97462.53
2023-03-12T04:25:26.256Z,97458.66
2023-03-12T04:27:59.254Z,97465.63
2023-03-12T04:30:29.707Z,97466.38
2023-03-12T04:33:00.059Z,97472.63
2023-03-12T04:35:30.444Z,97470.28
2023-03-12T04:38:01.219Z,97471.09
2023-03-12T04:40:32.030Z,97474.13
2023-03-12T04:43:05.538Z,97488.09
2023-03-12T04:45:35.872Z,97486.09
2023-03-12T04:48:06.839Z,97483.81
2023-03-12T04:50:37.278Z,97485.75
2023-03-12T04:53:07.662Z,97481.50
2023-03-12T04:55:38.124Z,97484.22
2023-03-12T04:58:11.926Z,97490.84
2023-03-12T05:00:43.472Z,97485.47
2023-03-12T05:03:15.236Z,97492.91
2023-03-12T05:05:46.389Z,97482.53
2023-03-12T05:08:16.932Z,97481.72
2023-03-12T05:10:48.061Z,97474.38
2023-03-12T05:13:25.926Z,97471.75
2023-03-12T05:15:59.438Z,97480.72
2023-03-12T05:18:30.180Z,97483.91
2023-03-12T05:21:05.657Z,97478.53
2023-03-12T05:23:39.314Z,97482.72
2023-03-12T05:26:09.903Z,97471.06
2023-03-12T05:28:42.910Z,97470.22
2023-03-12T05:31:15.509Z,97471.34
2023-03-12T05:33:47.160Z,97466.69
2023-03-12T05:36:18.661Z,97470.53
2023-03-12T05:38:50.426Z,97474.38
2023-03-12T05:41:25.638Z,97476.59
2023-03-12T05:44:02.229Z,97474.59
2023-03-12T05:46:33.117Z,97471.09
2023-03-12T05:49:03.948Z,97463.31
2023-03-12T05:51:36.066Z,97471.06
2023-03-12T05:54:06.892Z,97474.81
2023-03-12T05:56:40.021Z,97474.78
2023-03-12T05:59:13.751Z,97473.84
2023-03-12T06:01:45.287Z,97472.19
2023-03-12T06:04:16.138Z,97472.13
2023-03-12T06:06:46.523Z,97478.56
2023-03-12T06:09:17.469Z,97477.66
2023-03-12T06:11:47.849Z,97473.75
2023-03-12T06:14:20.904Z,97477.16
2023-03-12T06:16:52.129Z,97478.34
2023-03-12T06:19:22.719Z,97475.63
2023-03-12T06:21:54.115Z,97473.22
2023-03-12T06:24:24.841Z,97475.75
2023-03-12T06:27:03.153Z,97479.25
2023-03-12T06:29:36.144Z,97473.03
2023-03-12T06:32:06.709Z,97482.44
2023-03-12T06:34:37.275Z,97488.59
2023-03-12T06:37:07.917Z,97492.88
2023-03-12T06:39:38.316Z,97488.06
2023-03-12T06:42:09.054Z,97491.19
2023-03-12T06:44:42.036Z,97482.38
2023-03-12T06:47:12.311Z,97491.22
2023-03-12T06:49:42.792Z,97488.69
2023-03-12T06:52:13.190Z,97487.22
2023-03-12T06:54:43.604Z,97486.13
2023-03-12T06:57:13.987Z,97485.56
2023-03-12T06:59:50.085Z,97488.41
2023-03-12T07:02:20.937Z,97484.63
2023-03-12T07:04:51.242Z,97478.22
2023-03-12T07:07:21.779Z,97476.13
2023-03-12T07:09:52.363Z,97477.94
2023-03-12T07:12:22.792Z,97472.00
2023-03-12T07:14:55.679Z,97482.03
2023-03-12T07:17:26.480Z,97474.16
2023-03-12T07:19:56.767Z,97473.84
2023-03-12T07:22:27.206Z,97466.66
2023-03-12T07:24:57.707Z,97469.63
2023-03-12T07:27:28.168Z,97468.19
2023-03-12T07:30:01.138Z,97467.00
2023-03-12T07:32:33.650Z,97464.13
2023-03-12T07:35:04.007Z,97469.22
2023-03-12T07:37:34.531Z,97468.56
2023-03-12T07:40:07.457Z,97464.28
2023-03-12T07:42:37.892Z,97464.94
2023-03-12T07:45:13.758Z,97477.03
2023-03-12T07:47:44.745Z,97460.81
2023-03-12T07:50:16.440Z,97463.38
2023-03-12T07:52:46.928Z,97469.09
2023-03-12T07:55:17.498Z,97467.00
2023-03-12T07:57:47.980Z,97472.81
2023-03-12T08:00:21.700Z,97461.06
2023-03-12T08:02:52.504Z,97451.47
2023-03-12T08:05:24.980Z,97449.09
2023-03-12T08:07:56.215Z,97441.91
2023-03-12T08:10:26.739Z,97445.34
2023-03-12T08:12:57.075Z,97440.41
2023-03-12T08:15:30.046Z,97446.22
2023-03-12T08:18:01.046Z,97447.09
2023-03-12T08:20:31.534Z,97442.88
2023-03-12T08:23:01.871Z,97442.19
2023-03-12T08:25:32.105Z,97444.75
2023-03-12T08:28:02.515Z,97456.03
2023-03-12T08:30:35.584Z,97446.09
2023-03-12T08:33:05.870Z,97437.78
2023-03-12T08:35:37.339Z,97441.09
2023-03-12T08:38:07.700Z,97438.00
2023-03-12T08:40:38.368Z,97442.44
2023-03-12T08:43:09.020Z,97449.78
2023-03-12T08:45:42.231Z,97456.03
2023-03-12T08:48:12.623Z,97455.44
2023-03-12T08:50:43.229Z,97455.63
2023-03-12T08:53:13.660Z,97453.31
2023-03-12T08:55:44.123Z,97446.34
2023-03-12T08:58:14.591Z,97441.19
2023-03-12T09:00:47.588Z,97438.88
2023-03-12T09:03:18.240Z,97433.25
2023-03-12T09:05:48.859Z,97423.03
2023-03-12T09:08:20.292Z,97433.19
2023-03-12T09:10:53.626Z,97430.78
2023-03-12T09:13:23.917Z,97426.94
2023-03-12T09:16:02.897Z,97427.22
2023-03-12T09:18:33.856Z,97412.09
2023-03-12T09:21:05.190Z,97408.25
2023-03-12T09:23:35.494Z,97405.88
2023-03-12T09:26:05.837Z,97405.81
2023-03-12T09:28:36.190Z,97409.06
2023-03-12T09:31:09.568Z,97401.88
2023-03-12T09:33:39.973Z,97410.44
2023-03-12T09:36:11.059Z,97401.41
2023-03-12T09:38:41.899Z,97390.38
2023-03-12T09:41:22.535Z,97395.25
2023-03-12T09:43:59.778Z,97396.78
2023-03-12T09:46:41.802Z,97390.84
2023-03-12T09:49:21.427Z,97382.97
2023-03-12T09:51:57.999Z,97382.59
2023-03-12T09:54:36.762Z,97388.59
2023-03-12T09:57:16.133Z,97380.50
2023-03-12T09:59:46.619Z,97372.47
2023-03-12T10:02:48.020Z,97359.94
2023-03-12T10:05:26.240Z,97373.03
2023-03-12T10:08:17.486Z,97373.78
2023-03-12T10:10:58.572Z,97370.66
2023-03-12T10:13:44.451Z,97365.03
2023-03-12T10:16:33.038Z,97363.97
2023-03-12T10:19:42.186Z,97361.78
2023-03-12T10:22:24.224Z,97348.03
2023-03-12T10:25:04.680Z,97356.31
2023-03-12T10:27:38.511Z,97354.53
2023-03-12T10:30:21.134Z,97346.28
2023-03-12T10:32:55.146Z,97363.63
2023-03-12T10:35:31.869Z,97353.88
2023-03-12T10:38:04.808Z,97353.38
2023-03-12T10:40:39.144Z,97346.03
2023-03-12T10:43:10.177Z,97348.44
2023-03-12T10:45:46.997Z,97349.84
2023-03-12T10:48:24.893Z,97346.34
2023-03-12T10:51:09.924Z,97355.88
2023-03-12T10:53:45.023Z,97346.31
2023-03-12T10:56:17.991Z,97344.59
2023-03-12T10:58:51.114Z,97346.34
2023-03-12T11:01:25.975Z,97348.09
2023-03-12T11:04:12.001Z,97330.78
2023-03-12T11:06:45.166Z,97332.81
2023-03-12T11:09:22.020Z,97328.78
2023-03-12T11:11:53.804Z,97330.34
2023-03-12T11:14:26.539Z,97341.69
2023-03-12T11:16:59.499Z,97338.81
2023-03-12T11:19:32.790Z,97350.22
2023-03-12T11:22:11.656Z,97347.84
2023-03-12T11:25:00.019Z,97340.38
2023-03-12T11:27:41.309Z,97329.91
2023-03-12T11:30:18.029Z,97325.53
2023-03-12T11:32:51.332Z,97317.06
2023-03-12T11:35:33.258Z,97321.56
2023-03-12T11:38:15.551Z,97324.09
2023-03-12T11:41:05.111Z,97315.91
2023-03-12T11:43:57.829Z,97318.78
2023-03-12T11:46:45.127Z,97289.38
2023-03-12T11:49:31.572Z,97299.59
2023-03-12T11:52:09.448Z,97298.00
2023-03-12T11:55:17.040Z,97301.41
2023-03-12T11:58:10.198Z,97302.53
2023-03-12T12:00:53.229Z,97304.56
2023-03-12T12:03:42.318Z,97307.44
2023-03-12T12:06:21.221Z,97288.81
2023-03-12T12:09:14.317Z,97291.94
2023-03-12T12:12:05.755Z,97278.88
2023-03-12T12:14:58.938Z,97275.88
2023-03-12T12:17:49.097Z,97260.53
2023-03-12T12:20:27.698Z,97266.94
2023-03-12T12:23:13.414Z,97251.91
2023-03-12T12:26:09.097Z,97257.00
2023-03-12T12:29:00.125Z,97249.03
2023-03-12T12:31:37.111Z,97235.16
2023-03-12T12:34:35.024Z,97232.28
2023-03-12T12:37:33.634Z,97235.25
2023-03-12T12:40:18.816Z,97225.16
2023-03-12T12:43:00.343Z,97217.34
2023-03-12T12:45:33.331Z,97212.50
2023-03-12T12:48:09.318Z,97211.75
2023-03-12T12:50:42.796Z,97200.75
2023-03-12T12:53:24.514Z,97200.53
2023-03-12T12:56:06.241Z,97193.72
2023-03-12T12:59:08.689Z,97207.38
2023-03-12T13:01:42.161Z,97200.50
2023-03-12T13:04:26.606Z,97202.03
2023-03-12T13:07:01.062Z,97204.00
2023-03-12T13:09:44.218Z,97202.81
2023-03-12T13:12:24.188Z,97210.75
2023-03-12T13:14:56.547Z,97211.81
2023-03-12T13:17:33.167Z,97202.16
2023-03-12T13:20:16.862Z,97201.84
2023-03-12T13:23:23.315Z,97199.09
2023-03-12T13:26:04.470Z,97210.72
2023-03-12T13:28:44.476Z,97198.81
2023-03-12T13:31:40.556Z,97204.09
2023-03-12T13:34:58.448Z,97200.69
2023-03-12T13:37:59.960Z,97208.75
2023-03-12T13:40:56.764Z,97206.72
2023-03-12T13:43:52.627Z,97203.97
2023-03-12T13:46:45.164Z,97208.91
2023-03-12T13:49:19.757Z,97198.97
2023-03-12T13:52:18.609Z,97199.09
2023-03-12T13:54:52.528Z,97206.19
2023-03-12T13:57:41.348Z,97196.72
2023-03-12T14:00:21.619Z,97196.50
2023-03-12T14:02:56.699Z,97206.78
2023-03-12T14:05:27.388Z,97199.91
2023-03-12T14:08:33.798Z,97194.59
2023-03-12T14:11:26.428Z,97181.78
2023-03-12T14:14:42.378Z,97186.50
2023-03-12T14:17:20.518Z,97183.31
2023-03-12T14:19:55.731Z,97188.91
2023-03-12T14:22:27.239Z,97179.28
2023-03-12T14:25:04.265Z,97187.56
2023-03-12T14:27:37.130Z,97172.16
2023-03-12T14:30:16.581Z,97176.75
2023-03-12T14:32:49.277Z,97170.47
2023-03-12T14:35:25.988Z,97171.97
2023-03-12T14:38:03.718Z,97177.34
2023-03-12T14:40:44.433Z,97162.59
2023-03-12T14:43:28.265Z,97172.22
2023-03-12T14:46:00.149Z,97161.34
2023-03-12T14:48:34.443Z,97160.63
2023-03-12T14:51:09.901Z,97151.13
2023-03-12T14:53:41.964Z,97155.09
2023-03-12T14:56:19.656Z,97155.09
2023-03-12T14:58:52.768Z,97150.53
2023-03-12T15:01:27.262Z,97138.63
2023-03-12T15:04:02.035Z,97137.97
2023-03-12T15:06:35.042Z,97132.50
2023-03-12T15:09:09.677Z,97116.31
2023-03-12T15:11:42.929Z,97109.31
2023-03-12T15:14:18.128Z,97118.78
2023-03-12T15:16:48.906Z,97122.25
2023-03-12T15:19:25.199Z,97108.53
2023-03-12T15:21:55.791Z,97098.75
2023-03-12T15:24:26.764Z,97086.06
2023-03-12T15:26:59.875Z,97080.75
2023-03-12T15:29:32.150Z,97088.66
2023-03-12T15:32:03.882Z,97087.53
2023-03-12T15:34:37.104Z,97081.78
2023-03-12T15:37:29.721Z,97081.63
2023-03-12T15:40:07.398Z,97084.09
2023-03-12T15:42:46.676Z,97093.34
2023-03-12T15:45:23.679Z,97092.31
2023-03-12T15:47:57.094Z,97099.03
2023-03-12T15:50:34.508Z,97110.00
2023-03-12T15:53:07.758Z,97107.56
2023-03-12T15:55:39.574Z,97096.44
2023-03-12T15:58:32.067Z,97090.34
2023-03-12T16:01:16.764Z,97092.50
2023-03-12T16:03:48.645Z,97096.38
2023-03-12T16:06:23.383Z,97100.59
2023-03-12T16:08:56.911Z,97097.84
2023-03-12T16:11:30.834Z,97097.41
2023-03-12T16:14:12.184Z,97091.19
2023-03-12T16:16:42.811Z,97090.03
2023-03-12T16:19:17.904Z,97089.13
2023-03-12T16:21:48.674Z,97101.66
2023-03-12T16:24:19.717Z,97093.25
2023-03-12T16:26:54.093Z,97100.72
2023-03-12T16:29:34.293Z,97098.16
2023-03-12T16:32:05.743Z,97102.44
2023-03-12T16:34:36.207Z,97102.59
2023-03-12T16:37:06.830Z,97097.81
2023-03-12T16:39:37.226Z,97102.28
2023-03-12T16:42:17.277Z,97109.44
2023-03-12T16:44:50.793Z,97106.22
2023-03-12T16:47:21.094Z,97124.22
2023-03-12T16:49:51.424Z,97119.63
2023-03-12T16:52:24.457Z,97117.81
2023-03-12T16:54:55.308Z,97116.00
2023-03-12T16:57:30.769Z,97116.00
2023-03-12T17:00:07.877Z,97108.53
2023-03-12T17:02:39.265Z,97117.09
2023-03-12T17:05:10.570Z,97112.03
2023-03-12T17:07:40.848Z,97109.75
2023-03-12T17:10:14.864Z,97097.84
2023-03-12T17:12:48.209Z,97100.16
2023-03-12T17:15:25.944Z,97103.63
2023-03-12T17:17:59.463Z,97107.59
2023-03-12T17:20:29.797Z,97118.44
2023-03-12T17:23:00.182Z,97122.56
2023-03-12T17:25:34.511Z,97123.94
2023-03-12T17:28:05.184Z,97141.81
2023-03-12T17:30:39.288Z,97159.09
2023-03-12T17:33:13.891Z,97140.31
2023-03-12T17:35:45.462Z,97131.47
2023-03-12T17:38:16.482Z,97115.75
2023-03-12T17:40:48.052Z,97123.53
2023-03-12T17:43:18.429Z,97116.97
2023-03-12T17:45:51.462Z,97149.94
2023-03-12T17:48:23.424Z,97158.03
2023-03-12T17:50:53.848Z,97148.88
2023-03-12T17:53:24.225Z,97138.19
2023-03-12T17:55:54.606Z,97142.78
2023-03-12T17:58:25.113Z,97152.09
2023-03-12T18:00:58.356Z,97151.78
2023-03-12T18:03:28.735Z,97158.66
2023-03-12T18:05:59.994Z,97159.56
2023-03-12T18:08:30.028Z,97160.03
2023-03-12T18:11:01.791Z,97161.84
2023-03-12T18:13:32.313Z,97156.81
2023-03-12T18:16:05.433Z,97160.03
2023-03-12T18:18:35.956Z,97163.69
2023-03-12T18:21:06.878Z,97176.53
2023-03-12T18:23:37.361Z,97175.00
2023-03-12T18:26:08.626Z,97175.16
2023-03-12T18:28:39.071Z,97174.09
2023-03-12T18:31:12.181Z,97178.81
2023-03-12T18:33:42.779Z,97166.13
2023-03-12T18:36:13.469Z,97146.44
2023-03-12T18:38:43.926Z,97168.13
2023-03-12T18:41:16.723Z,97155.47
2023-03-12T18:43:47.138Z,97157.59
2023-03-12T18:46:23.142Z,97164.75
2023-03-12T18:48:54.000Z,97149.63
2023-03-12T18:51:25.059Z,97159.72
2023-03-12T18:53:55.437Z,97160.66
2023-03-12T18:56:25.923Z,97168.44
2023-03-12T18:58:56.259Z,97164.16
2023-03-12T19:01:29.181Z,97174.38
2023-03-12T19:03:59.594Z,97166.13
2023-03-12T19:06:40.801Z,97179.25
2023-03-12T19:09:14.670Z,97179.59
2023-03-12T19:11:45.186Z,97175.94
2023-03-12T19:14:15.619Z,97174.22
2023-03-12T19:16:48.524Z,97177.44
2023-03-12T19:19:18.850Z,97191.50
2023-03-12T19:21:49.201Z,97180.50
2023-03-12T19:24:19.513Z,97176.38
2023-03-12T19:26:49.922Z,97182.31
2023-03-12T19:29:20.677Z,97190.28
2023-03-12T19:31:53.700Z,97186.72
2023-03-12T19:34:24.845Z,97180.47
2023-03-12T19:36:55.637Z,97179.41
2023-03-12T19:39:26.119Z,97174.50
2023-03-12T19:41:59.344Z,97164.84
2023-03-12T19:44:29.712Z,97183.84
2023-03-12T19:47:05.520Z,97176.63
2023-03-12T19:49:36.037Z,97181.84
2023-03-12T19:52:07.140Z,97186.28
2023-03-12T19:54:37.365Z,97186.41
2023-03-12T19:57:07.842Z,97195.88
2023-03-12T19:59:38.382Z,97194.19
2023-03-12T20:02:14.985Z,97186.84
2023-03-12T20:04:45.364Z,97197.53
2023-03-12T20:07:17.472Z,97198.44
2023-03-12T20:09:47.777Z,97205.97
2023-03-12T20:12:18.113Z,97206.41
2023-03-12T20:14:48.590Z,97192.66
2023-03-12T20:17:22.867Z,97207.63
2023-03-12T20:19:53.310Z,97201.50
2023-03-12T20:22:28.176Z,97203.97
2023-03-12T20:24:58.658Z,97212.81
2023-03-12T20:27:29.412Z,97214.34
2023-03-12T20:30:00.064Z,97210.84
2023-03-12T20:32:33.124Z,97210.97
2023-03-12T20:35:03.669Z,97199.00
2023-03-12T20:37:34.130Z,97187.84
2023-03-12T20:40:05.380Z,97186.91
2023-03-12T20:42:36.241Z,97206.94
2023-03-12T20:45:07.329Z,97203.06
2023-03-12T20:47:40.620Z,97200.81
2023-03-12T20:50:13.283Z,97198.63
2023-03-12T20:52:43.634Z,97192.06
2023-03-12T20:55:14.150Z,97196.34
2023-03-12T20:57:44.565Z,97196.50
2023-03-12T21:00:16.247Z,97191.19
2023-03-12T21:02:49.253Z,97189.78
2023-03-12T21:05:19.997Z,97196.06
2023-03-12T21:07:50.618Z,97205.53
2023-03-12T21:10:21.390Z,97202.03
2023-03-12T21:12:51.829Z,97216.72
2023-03-12T21:15:22.567Z,97206.63
2023-03-12T21:17:55.554Z,97198.38
2023-03-12T21:20:26.039Z,97208.44
2023-03-12T21:22:56.474Z,97188.56
2023-03-12T21:25:27.216Z,97199.56
2023-03-12T21:27:58.451Z,97194.34
2023-03-12T21:30:28.873Z,97186.38
2023-03-12T21:33:02.286Z,97190.38
2023-03-12T21:35:32.902Z,97181.66
2023-03-12T21:38:03.407Z,97175.50
2023-03-12T21:40:33.799Z,97170.28
2023-03-12T21:43:04.154Z,97175.31
2023-03-12T21:45:34.756Z,97170.13
2023-03-12T21:48:08.799Z,97169.47
2023-03-12T21:50:39.213Z,97173.75
2023-03-12T21:53:21.417Z,97166.06
2023-03-12T21:55:58.912Z,97162.69
2023-03-12T21:58:30.396Z,97164.84
2023-03-12T22:01:09.421Z,97160.22
2023-03-12T22:03:44.734Z,97155.28
2023-03-12T22:06:16.213Z,97169.72
2023-03-12T22:08:48.200Z,97162.91
2023-03-12T22:11:19.063Z,97161.22
2023-03-12T22:13:49.460Z,97159.50
2023-03-12T22:16:19.834Z,97157.19
2023-03-12T22:18:55.859Z,97153.81
2023-03-12T22:21:27.077Z,97147.34
2023-03-12T22:23:58.174Z,97158.69
2023-03-12T22:26:29.033Z,97141.06
2023-03-12T22:29:01.322Z,97140.16
2023-03-12T22:31:33.488Z,97138.06
2023-03-12T22:34:06.509Z,97144.47
2023-03-12T22:36:36.906Z,97142.75
2023-03-12T22:39:07.301Z,97150.44
2023-03-12T22:41:37.864Z,97154.72
2023-03-12T22:44:10.565Z,97162.19
2023-03-12T22:46:41.149Z,97152.84
2023-03-12T22:49:14.253Z,97159.59
2023-03-12T22:51:44.817Z,97152.84
2023-03-12T22:54:16.349Z,97151.31
2023-03-12T22:56:48.187Z,97163.88
2023-03-12T22:59:18.825Z,97152.28
2023-03-12T23:01:49.697Z,97146.88
2023-03-12T23:04:22.920Z,97149.44
2023-03-12T23:06:59.065Z,97141.91
2023-03-12T23:09:37.754Z,97149.25
2023-03-12T23:12:08.651Z,97150.00
2023-03-12T23:14:39.187Z,97143.25
2023-03-12T23:17:11.284Z,97132.06
2023-03-12T23:19:45.030Z,97133.38
2023-03-12T23:22:15.343Z,97130.63
2023-03-12T23:24:48.443Z,97129.97
2023-03-12T23:27:19.277Z,97131.66
2023-03-12T23:29:49.734Z,97127.66
2023-03-12T23:32:20.210Z,97127.66
2023-03-12T23:34:53.841Z,97123.69
2023-03-12T23:37:24.503Z,97125.22
2023-03-12T23:39:55.309Z,97124.75
2023-03-12T23:42:26.074Z,97126.28
2023-03-12T23:44:56.529Z,97127.50
2023-03-12T23:47:29.674Z,97125.22
2023-03-12T23:50:02.594Z,97122.75
2023-03-12T23:52:33.114Z,97133.78
2023-03-12T23:55:03.685Z,97131.78
2023-03-12T23:57:35.084Z,97123.69
